Data for 07/27/2007

Time Sea-Level Adjusted Pressure Absolute Pressure Temperature Relative Humidity Dew Point   
(mb) (inHg) (mb) (inHg) (C) (F) (%) (C) (F)
00:05 1022 30.18 851 25.13 18.7 65.7 76 14.4 58
00:10 1022 30.18 851 25.13 18.7 65.7 76 14.5 58
00:15 1022 30.18 851 25.13 18.7 65.7 76 14.5 58
00:20 1022 30.18 851 25.13 18.7 65.6 76 14.5 58
00:25 1022 30.18 851 25.13 18.7 65.6 76 14.4 58
00:30 1022 30.18 851 25.13 18.6 65.6 76 14.5 58
00:35 1022 30.18 851 25.13 18.6 65.5 77 14.5 58
00:40 1022 30.18 851 25.13 18.6 65.4 77 14.5 58
00:45 1022 30.18 851 25.13 18.6 65.5 76 14.4 58
00:50 1022 30.18 851 25.13 18.6 65.4 77 14.5 58.2
00:55 1022 30.18 851 25.13 18.5 65.3 77 14.5 58.1
01:00 1022 30.18 851 25.13 18.5 65.3 77 14.5 58.1
01:05 1022 30.18 851 25.13 18.4 65.1 77 14.4 58
01:10 1022 30.18 851 25.13 18.4 65.2 78 14.5 58.1
01:15 1022 30.18 851 25.13 18.4 65.1 78 14.4 58
01:20 1022 30.18 851 25.13 18.4 65.1 78 14.4 58
01:25 1022 30.18 851 25.13 18.4 65 78 14.4 58
01:30 1022 30.18 851 25.13 18.3 64.9 78 14.5 58.2
01:35 1022 30.18 851 25.13 18.3 64.9 79 14.5 58.2
01:40 1022 30.18 851 25.13 18.2 64.8 79 14.5 58.2
01:45 1022 30.18 851 25.13 18.2 64.8 79 14.6 58.2
01:50 1022 30.18 851 25.13 18.2 64.7 79 14.6 58.2
01:55 1022 30.18 851 25.13 18.1 64.7 80 14.6 58.4
02:00 1022 30.18 851 25.13 18.1 64.6 80 14.6 58.3
02:05 1022 30.18 851 25.13 18.1 64.6 80 14.6 58.2
02:10 1022 30.18 851 25.13 18 64.5 80 14.5 58.1
02:15 1021 30.15 851 25.13 18.1 64.5 79 14.5 58.1
02:20 1021 30.15 851 25.13 18 64.4 80 14.5 58.1
02:25 1021 30.15 851 25.13 18 64.4 80 14.5 58
02:30 1021 30.15 851 25.13 18 64.4 80 14.5 58
02:35 1021 30.15 851 25.13 18 64.3 80 14.5 58
02:40 1021 30.15 850 25.1 17.9 64.1 80 14.4 58
02:45 1021 30.15 850 25.1 17.9 64.2 80 14.4 57.9
02:50 1021 30.15 850 25.1 17.9 64.2 80 14.3 57.8
02:55 1021 30.15 850 25.1 17.9 64.1 79 14.3 57.7
03:00 1021 30.15 850 25.1 17.8 64 80 14.2 57.6
03:05 1021 30.15 850 25.1 17.6 63.8 80 14.2 57.6
03:10 1021 30.15 850 25.1 17.6 63.7 80 14.2 57.6
03:15 1021 30.15 850 25.1 17.5 63.5 81 14.2 57.5
03:20 1021 30.15 850 25.1 17.4 63.4 81 14.2 57.6
03:25 1021 30.15 850 25.1 17.3 63.2 83 14.4 57.9
03:30 1021 30.15 850 25.1 17.4 63.2 81 14.2 57.5
03:35 1021 30.15 850 25.1 17.3 63.2 81 14 57.2
03:40 1021 30.15 850 25.1 17.3 63.2 80 13.9 57
03:45 1021 30.15 850 25.1 17.3 63.1 80 13.9 57
03:50 1021 30.15 850 25.1 17.3 63.1 80 13.8 56.9
03:55 1021 30.15 850 25.1 17.2 62.9 82 14.1 57.3
04:00 1021 30.15 850 25.1 17.1 62.7 83 14.1 57.4
04:05 1021 30.15 850 25.1 16.9 62.3 83 14 57.2
04:10 1021 30.15 850 25.1 16.9 62.3 82 13.8 56.8
04:15 1021 30.15 850 25.1 16.8 62.2 83 13.9 57
04:20 1021 30.15 850 25.1 16.7 62 83 13.8 56.9
04:25 1021 30.15 850 25.1 16.5 61.7 83 13.7 56.7
04:30 1021 30.15 850 25.1 16.6 61.9 83 13.7 56.7
04:35 1021 30.15 850 25.1 16.5 61.6 83 13.6 56.5
04:40 1021 30.15 850 25.1 16.4 61.5 84 13.6 56.5
04:45 1021 30.15 850 25.1 16.4 61.4 84 13.6 56.5
04:50 1021 30.15 850 25.1 16.4 61.6 83 13.6 56.5
04:55 1021 30.15 850 25.1 16.5 61.7 82 13.5 56.4
05:00 1021 30.15 850 25.1 16.4 61.5 82 13.4 56.1
05:05 1021 30.15 850 25.1 16.3 61.3 82 13.3 55.9
05:10 1021 30.15 850 25.1 16 60.9 83 13.1 55.6
05:15 1021 30.15 850 25.1 15.9 60.6 82 12.9 55.1
05:20 1021 30.15 850 25.1 16 60.7 82 12.9 55.3
05:25 1021 30.15 850 25.1 15.9 60.7 82 12.8 55.1
05:30 1021 30.15 850 25.1 15.9 60.6 82 12.9 55.2
05:35 1021 30.15 851 25.13 15.9 60.6 82 12.9 55.1
05:40 1021 30.15 851 25.13 16 60.8 80 12.6 54.6
05:45 1021 30.15 851 25.13 16 60.7 80 12.6 54.7
05:50 1021 30.15 851 25.13 16 60.8 79 12.4 54.4
05:55 1021 30.15 851 25.13 16.2 61.1 76 12.1 53.7
06:00 1021 30.15 851 25.13 15.9 60.6 76 11.8 53.3
06:05 1021 30.15 851 25.13 15.9 60.7 76 11.8 53.2
06:10 1021 30.15 851 25.13 16.3 61.3 76 12.1 53.7
06:15 1021 30.15 851 25.13 16.4 61.4 77 12.4 54.3
06:20 1021 30.15 851 25.13 16.3 61.4 77 12.3 54.1
06:25 1021 30.15 851 25.13 16.3 61.4 77 12.2 54
06:30 1021 30.15 851 25.13 16.1 61.1 77 12.2 53.9
06:35 1021 30.15 851 25.13 16.1 60.9 77 12.1 53.8
06:40 1021 30.15 851 25.13 15.9 60.7 77 12 53.7
06:45 1022 30.18 851 25.13 16 60.8 78 12.2 53.9
06:50 1022 30.18 851 25.13 16 60.8 80 12.7 54.8
06:55 1022 30.18 851 25.13 15.9 60.7 79 12.3 54.1
07:00 1022 30.18 851 25.13 16.1 60.9 78 12.2 54
07:05 1022 30.18 851 25.13 16.1 60.9 78 12.3 54.2
07:10 1022 30.18 851 25.13 16.1 61 79 12.5 54.5
07:15 1022 30.18 851 25.13 16.1 61.1 80 12.6 54.7
07:20 1022 30.18 851 25.13 16.2 61.2 80 12.7 54.9
07:25 1022 30.18 851 25.13 16.3 61.3 83 13.4 56.1
07:30 1022 30.18 851 25.13 16.5 61.8 78 12.8 55.1
07:35 1022 30.18 851 25.13 16.6 61.8 79 13 55.4
07:40 1022 30.18 851 25.13 16.6 61.8 78 12.8 55
07:45 1022 30.18 851 25.13 16.4 61.5 80 12.9 55.3
07:50 1022 30.18 851 25.13 16.4 61.6 77 12.4 54.4
07:55 1022 30.18 851 25.13 16.7 62.1 76 12.6 54.7
08:00 1022 30.18 851 25.13 16.7 62.1 78 12.9 55.2
08:05 1022 30.18 851 25.13 16.9 62.4 76 12.7 54.9
08:10 1022 30.18 851 25.13 17.2 63 75 12.8 55.1
08:15 1022 30.18 851 25.13 17.4 63.3 73 12.7 54.8
08:20 1022 30.18 851 25.13 17.3 63.1 76 13 55.4
08:25 1022 30.18 851 25.13 17.3 63.1 75 12.8 55.1
08:30 1022 30.18 851 25.13 17.2 63 75 12.8 55
08:35 1022 30.18 851 25.13 17.3 63.2 72 12.4 54.3
08:40 1022 30.18 851 25.13 17.6 63.7 71 12.3 54.2
08:45 1022 30.18 851 25.13 17.8 64 72 12.7 54.9
08:50 1022 30.18 851 25.13 18 64.4 72 12.9 55.2
08:55 1022 30.18 851 25.13 18.1 64.7 71 12.9 55.2
09:00 1022 30.18 851 25.13 18.2 64.8 72 13.2 55.7
09:05 1022 30.18 852 25.16 18.3 65 71 13 55.3
09:10 1022 30.18 852 25.16 18.6 65.4 69 12.9 55.2
09:15 1022 30.18 851 25.13 18.7 65.7 69 13 55.3
09:20 1022 30.18 852 25.16 18.8 65.9 69 13.1 55.7
09:25 1022 30.18 852 25.16 18.9 66 68 13 55.4
09:30 1022 30.18 852 25.16 19.5 67 68 13.4 56.1
09:35 1022 30.18 852 25.16 20.4 68.8 57 11.7 53
09:40 1022 30.18 852 25.16 21.6 70.9 54 12.1 53.8
09:45 1022 30.18 852 25.16 22 71.6 54 12.3 54.2
09:50 1022 30.18 851 25.13 21.7 71 56 12.7 54.8
09:55 1022 30.18 851 25.13 21.6 70.8 55 12.3 54.1
10:00 1022 30.18 851 25.13 21.9 71.3 54 12.2 54
10:05 1022 30.18 851 25.13 22 71.5 53 12 53.6
10:10 1022 30.18 851 25.13 22.8 73.1 49 11.8 53.3
10:15 1022 30.18 851 25.13 23.2 73.7 49 12.1 53.7
10:20 1022 30.18 851 25.13 22.9 73.2 51 12.3 54.1
10:25 1022 30.18 851 25.13 22.6 72.6 51 12.1 53.8
10:30 1022 30.18 851 25.13 22.8 73.1 49 11.8 53.2
10:35 1022 30.18 851 25.13 23.4 74.2 47 11.7 53
10:40 1022 30.18 851 25.13 24.1 75.4 45 11.6 52.9
10:45 1022 30.18 851 25.13 24.9 76.8 43 11.7 53
10:50 1022 30.18 851 25.13 25.3 77.5 43 12 53.6
10:55 1022 30.18 851 25.13 24.9 76.7 44 12.1 53.8
11:00 1022 30.18 851 25.13 24.5 76.2 45 12 53.7
11:05 1022 30.18 851 25.13 24.9 76.8 45 12.5 54.4
11:10 1022 30.18 851 25.13 25.1 77.1 43 11.8 53.3
11:15 1022 30.18 851 25.13 25.3 77.5 44 12.2 53.9
11:20 1022 30.18 851 25.13 25 76.9 45 12.5 54.5
11:25 1022 30.18 851 25.13 25 77 42 11.6 52.8
11:30 1022 30.18 851 25.13 25.9 78.6 40 11.3 52.4
11:35 1022 30.18 851 25.13 25.8 78.5 40 11.5 52.6
11:40 1022 30.18 851 25.13 26.5 79.7 38 11.4 52.5
11:45 1022 30.18 851 25.13 26.3 79.4 39 11.5 52.7
11:50 1022 30.18 851 25.13 26.5 79.6 39 11.5 52.8
11:55 1022 30.18 851 25.13 26.6 79.8 39 11.7 53
12:00 1022 30.18 851 25.13 27 80.5 38 11.6 52.8
12:05 1022 30.18 851 25.13 27.3 81.2 35 10.9 51.6
12:10 1022 30.18 851 25.13 26.2 79.2 39 11.6 52.9
12:15 1022 30.18 851 25.13 25.8 78.5 40 11.3 52.3
12:20 1022 30.18 851 25.13 26.9 80.4 37 11.3 52.4
12:25 1022 30.18 851 25.13 26.9 80.5 36 10.8 51.4
12:30 1022 30.18 851 25.13 27.6 81.7 34 10.4 50.7
12:35 1022 30.18 851 25.13 28.2 82.7 33 10.6 51.1
12:40 1022 30.18 851 25.13 28.5 83.3 33 10.8 51.5
12:45 1022 30.18 851 25.13 28.1 82.7 33 10.5 51
12:50 1022 30.18 851 25.13 28.6 83.4 33 11.1 52
12:55 1022 30.18 851 25.13 28.3 82.9 32 10.5 50.9
13:00 1021 30.15 851 25.13 27.8 82 33 10.5 50.9
13:05 1021 30.15 851 25.13 28.1 82.5 32 10.2 50.4
13:10 1021 30.15 851 25.13 27.4 81.4 32 9.7 49.5
13:15 1021 30.15 851 25.13 28.5 83.3 31 9.9 49.8
13:20 1021 30.15 851 25.13 28.1 82.7 33 10.4 50.8
13:25 1021 30.15 851 25.13 28.5 83.3 30 9.4 48.9
13:30 1021 30.15 851 25.13 28.8 83.8 30 9.9 49.9
13:35 1021 30.15 851 25.13 28.9 83.9 30 9.7 49.5
13:40 1021 30.15 850 25.1 29.2 84.5 30 10.1 50.2
13:45 1021 30.15 850 25.1 28.6 83.4 31 10.2 50.4
13:50 1021 30.15 850 25.1 27.7 81.8 32 9.8 49.6
13:55 1021 30.15 850 25.1 28.7 83.7 28 8.9 48.1
14:00 1021 30.15 850 25.1 29 84.1 31 10.5 50.9
14:05 1021 30.15 850 25.1 28.5 83.4 31 9.9 49.8
14:10 1021 30.15 850 25.1 28.5 83.3 27 8.2 46.8
14:15 1021 30.15 850 25.1 28.7 83.7 27 8.3 47
14:20 1021 30.15 850 25.1 29 84.1 27 8.2 46.7
14:25 1021 30.15 850 25.1 29.2 84.6 26 8 46.4
14:30 1021 30.15 850 25.1 29.9 85.9 24 7.5 45.5
14:35 1021 30.15 850 25.1 29.5 85.2 24 7.4 45.4
14:40 1020 30.12 850 25.1 30.1 86.2 23 7.1 44.7
14:45 1020 30.12 850 25.1 29.9 85.8 25 7.8 46.1
14:50 1020 30.12 850 25.1 29.8 85.7 24 7.2 44.9
14:55 1020 30.12 849 25.07 31 87.7 23 7.7 45.9
15:00 1020 30.12 849 25.07 29.7 85.5 24 7.2 44.9
15:05 1020 30.12 849 25.07 30.1 86.1 24 7.4 45.3
15:10 1020 30.12 849 25.07 29.3 84.7 24 7.1 44.8
15:15 1020 30.12 849 25.07 30 86.1 22 6.3 43.3
15:20 1020 30.12 849 25.07 30.4 86.7 22 6.3 43.4
15:25 1020 30.12 849 25.07 30.6 87 21 6.3 43.3
15:30 1020 30.12 849 25.07 31.3 88.3 20 6.1 43
15:35 1020 30.12 849 25.07 31.6 88.8 19 5.2 41.3
15:40 1020 30.12 849 25.07 31.3 88.3 19 5.3 41.6
15:45 1020 30.12 849 25.07 30.7 87.3 20 5.5 41.9
15:50 1020 30.12 849 25.07 30.3 86.6 19 4.6 40.4
15:55 1020 30.12 849 25.07 30.9 87.6 18 4.1 39.5
16:00 1020 30.12 849 25.07 31.3 88.3 20 5.8 42.4
16:05 1020 30.12 849 25.07 30.9 87.5 19 5 41
16:10 1020 30.12 849 25.07 31.3 88.4 19 5.4 41.8
16:15 1020 30.12 849 25.07 31.7 89.1 18 4.5 40.2
16:20 1019 30.09 849 25.07 31.6 88.9 18 4.9 40.7
16:25 1019 30.09 849 25.07 31.6 88.8 18 4.8 40.7
16:30 1019 30.09 849 25.07 31.6 88.9 17 3.8 38.8
16:35 1019 30.09 849 25.07 31.9 89.4 16 3.2 37.8
16:40 1019 30.09 849 25.07 31.5 88.7 16 2.8 37.1
16:45 1019 30.09 849 25.07 31.2 88.2 16 2.8 37
16:50 1019 30.09 849 25.07 32 89.7 15 2.2 35.9
16:55 1019 30.09 849 25.07 31.7 89.1 14 1 33.7
17:00 1019 30.09 849 25.07 31 87.7 14 0.8 33.4
17:05 1019 30.09 849 25.07 31.1 88 15 2 35.5
17:10 1019 30.09 849 25.07 31.2 88.1 12 -1.1 30.1
17:15 1019 30.09 849 25.07 31.4 88.5 13 -0.2 31.7
17:20 1019 30.09 849 25.07 31.1 88.1 12 -1.3 29.7
17:25 1019 30.09 849 25.07 32 89.6 12 -0.1 31.7
17:30 1019 30.09 849 25.07 32.4 90.2 12 0.2 32.4
17:35 1019 30.09 849 25.07 32.2 89.9 15 2.8 37.1
17:40 1019 30.09 849 25.07 31.8 89.3 15 2.8 37
17:45 1019 30.09 849 25.07 31.8 89.2 15 2.7 36.9
17:50 1019 30.09 849 25.07 31.6 88.8 16 3.1 37.5
17:55 1019 30.09 849 25.07 31.3 88.4 17 3.4 38
18:00 1019 30.09 849 25.07 30.9 87.6 17 3.1 37.6
18:05 1019 30.09 849 25.07 30.7 87.2 15 1.7 35.1
18:10 1019 30.09 849 25.07 30.1 86.1 15 0.9 33.6
18:15 1019 30.09 849 25.07 29.6 85.3 16 1.1 33.9
18:20 1019 30.09 849 25.07 29.4 84.8 17 2.4 36.3
18:25 1020 30.12 849 25.07 28.4 83.2 25 6.6 43.9
18:30 1020 30.12 849 25.07 27.7 81.8 27 7.1 44.8
18:35 1020 30.12 849 25.07 27.3 81.2 28 7.3 45.1
18:40 1020 30.12 849 25.07 27 80.7 28 7.2 45
18:45 1020 30.12 849 25.07 26.9 80.4 29 7.5 45.4
18:50 1020 30.12 849 25.07 26.8 80.2 30 7.9 46.3
18:55 1020 30.12 849 25.07 26.9 80.4 30 7.9 46.2
19:00 1020 30.12 849 25.07 26.7 80 31 8.5 47.2
19:05 1020 30.12 849 25.07 26.1 78.9 32 8.3 47
19:10 1020 30.12 849 25.07 25.7 78.3 31 7.5 45.5
19:15 1020 30.12 849 25.07 25.6 78.1 33 8.4 47.1
19:20 1020 30.12 849 25.07 24.9 76.8 37 9.5 49.1
19:25 1020 30.12 849 25.07 24.3 75.7 38 9.3 48.8
19:30 1020 30.12 849 25.07 24.3 75.8 37 8.8 47.9
19:35 1020 30.12 849 25.07 24.8 76.6 31 6.8 44.3
19:40 1020 30.12 849 25.07 25 76.9 31 6.9 44.5
19:45 1020 30.12 849 25.07 25.3 77.6 33 7.9 46.3
19:50 1020 30.12 849 25.07 25.5 77.9 29 6.4 43.6
19:55 1020 30.12 849 25.07 25.6 78.1 31 7.3 45.1
20:00 1020 30.12 849 25.07 25.4 77.7 31 7.4 45.4
20:05 1020 30.12 849 25.07 25.4 77.6 30 7 44.5
20:10 1020 30.12 849 25.07 25.3 77.5 32 7.8 46.1
20:15 1020 30.12 849 25.07 25.1 77.2 33 8 46.4
20:20 1020 30.12 849 25.07 25 76.9 34 8.1 46.6
20:25 1020 30.12 849 25.07 24.8 76.6 35 8.5 47.4
20:30 1020 30.12 849 25.07 24.5 76.2 36 8.8 47.9
20:35 1020 30.12 849 25.07 24.3 75.7 39 9.5 49
20:40 1020 30.12 849 25.07 24 75.1 40 9.9 49.7
20:45 1020 30.12 849 25.07 23.8 74.8 41 9.9 49.9
20:50 1020 30.12 849 25.07 23.6 74.5 42 10.1 50.1
20:55 1020 30.12 849 25.07 23.4 74.2 43 10.3 50.5
21:00 1020 30.12 849 25.07 23.2 73.8 43 10.3 50.5
21:05 1020 30.12 849 25.07 23.2 73.7 43 10.2 50.4
21:10 1020 30.12 849 25.07 23.2 73.7 42 9.8 49.6
21:15 1020 30.12 849 25.07 23.1 73.6 45 10.6 51.1
21:20 1020 30.12 849 25.07 22.5 72.5 50 11.6 52.8
21:25 1020 30.12 849 25.07 22 71.6 51 11.5 52.7
21:30 1020 30.12 849 25.07 21.7 71.1 48 10.5 51
21:35 1020 30.12 849 25.07 21.4 70.5 50 10.7 51.3
21:40 1020 30.12 849 25.07 21.1 69.9 50 10.3 50.6
21:45 1020 30.12 849 25.07 20.8 69.5 50 10.1 50.2
21:50 1020 30.12 849 25.07 20.9 69.6 48 9.6 49.2
21:55 1020 30.12 849 25.07 20.8 69.5 50 10.2 50.3
22:00 1020 30.12 849 25.07 20.9 69.6 47 9.2 48.6
22:05 1020 30.12 849 25.07 21.2 70.1 47 9.4 49
22:10 1020 30.12 849 25.07 21.2 70.1 48 9.7 49.5
22:15 1020 30.12 849 25.07 20.9 69.6 48 9.6 49.3
22:20 1020 30.12 849 25.07 20.7 69.2 48 9.5 49.1
22:25 1020 30.12 849 25.07 20.6 69.2 48 9.5 49
22:30 1020 30.12 849 25.07 20.4 68.7 52 10.4 50.7
22:35 1020 30.12 849 25.07 20.5 68.8 51 10.2 50.3
22:40 1020 30.12 849 25.07 20.4 68.8 49 9.4 49
22:45 1020 30.12 849 25.07 20.1 68.1 49 9.3 48.7
22:50 1020 30.12 849 25.07 19.9 67.8 51 9.4 49
22:55 1020 30.12 849 25.07 19.7 67.5 50 9.2 48.5
23:00 1020 30.12 849 25.07 19.6 67.2 51 9.4 49
23:05 1020 30.12 849 25.07 19.5 67 52 9.6 49.3
23:10 1020 30.12 849 25.07 19.3 66.7 52 9.2 48.6
23:15 1020 30.12 849 25.07 19.4 66.8 51 9 48.2
23:20 1020 30.12 849 25.07 19.5 67 49 8.5 47.4
23:25 1020 30.12 849 25.07 19.7 67.4 48 8.6 47.4
23:30 1020 30.12 849 25.07 19.4 66.8 49 8.4 47.1
23:35 1020 30.12 849 25.07 19.5 67.1 51 9.2 48.5
23:40 1020 30.12 849 25.07 19.6 67.3 47 8.2 46.8
23:45 1020 30.12 849 25.07 19.6 67.2 48 8.4 47
23:50 1020 30.12 849 25.07 19.3 66.7 48 8.1 46.5
23:55 1020 30.12 849 25.07 19.4 67 47 8 46.4
24:00 1020 30.12 849 25.07 19.5 67.1 46 7.9 46.1